createdAt,value
2022-12-28T00:01:27.468Z,7.10
2022-12-28T00:03:54.826Z,7.10
2022-12-28T00:06:23.518Z,7.20
2022-12-28T00:08:56.698Z,7.20
2022-12-28T00:11:30.320Z,7.20
2022-12-28T00:14:00.200Z,7.20
2022-12-28T00:16:32.666Z,7.30
2022-12-28T00:19:01.448Z,7.20
2022-12-28T00:21:29.267Z,7.20
2022-12-28T00:23:58.609Z,7.20
2022-12-28T00:26:27.105Z,7.20
2022-12-28T00:28:58.313Z,7.20
2022-12-28T00:31:30.678Z,7.20
2022-12-28T00:33:57.475Z,7.20
2022-12-28T00:36:24.311Z,7.30
2022-12-28T00:38:51.196Z,7.30
2022-12-28T00:41:18.045Z,7.30
2022-12-28T00:43:46.140Z,7.20
2022-12-28T00:46:13.406Z,7.20
2022-12-28T00:48:40.686Z,7.30
2022-12-28T00:51:13.325Z,7.30
2022-12-28T00:53:40.724Z,7.30
2022-12-28T00:56:13.127Z,7.30
2022-12-28T00:58:40.366Z,7.30
2022-12-28T01:01:12.933Z,7.30
2022-12-28T01:03:39.774Z,7.30
2022-12-28T01:06:08.150Z,7.40
2022-12-28T01:08:37.240Z,7.40
2022-12-28T01:11:08.563Z,7.40
2022-12-28T01:13:36.031Z,7.40
2022-12-28T01:16:14.706Z,7.40
2022-12-28T01:18:42.610Z,7.40
2022-12-28T01:21:15.153Z,7.50
2022-12-28T01:23:42.306Z,7.50
2022-12-28T01:26:09.361Z,7.50
2022-12-28T01:28:36.696Z,7.50
2022-12-28T01:31:12.047Z,7.60
2022-12-28T01:33:39.491Z,7.60
2022-12-28T01:36:12.557Z,7.70
2022-12-28T01:38:39.398Z,7.60
2022-12-28T01:41:19.751Z,7.60
2022-12-28T01:44:07.568Z,7.70
2022-12-28T01:46:50.074Z,7.80
2022-12-28T01:49:21.789Z,7.80
2022-12-28T01:51:58.924Z,7.80
2022-12-28T01:54:29.999Z,7.80
2022-12-28T01:56:57.845Z,7.80
2022-12-28T01:59:27.742Z,7.80
2022-12-28T02:01:55.247Z,7.80
2022-12-28T02:04:22.175Z,7.70
2022-12-28T02:06:49.221Z,7.60
2022-12-28T02:09:35.729Z,7.70
2022-12-28T02:12:02.536Z,7.60
2022-12-28T02:14:30.379Z,7.70
2022-12-28T02:16:57.474Z,7.60
2022-12-28T02:19:46.097Z,7.60
2022-12-28T02:22:22.105Z,7.60
2022-12-28T02:24:48.868Z,7.60
2022-12-28T02:28:13.722Z,7.70
2022-12-28T02:30:54.649Z,7.70
2022-12-28T02:33:32.783Z,7.80
2022-12-28T02:36:18.098Z,7.80
2022-12-28T02:39:00.083Z,7.80
2022-12-28T02:41:26.956Z,7.90
2022-12-28T02:43:54.209Z,7.90
2022-12-28T02:46:47.249Z,7.90
2022-12-28T02:49:45.420Z,7.90
2022-12-28T02:52:21.835Z,7.90
2022-12-28T02:55:39.756Z,8.00
2022-12-28T02:58:29.467Z,7.90
2022-12-28T03:01:07.725Z,8.00
2022-12-28T03:03:54.165Z,7.90
2022-12-28T03:07:05.259Z,7.90
2022-12-28T03:09:46.956Z,8.00
2022-12-28T03:12:30.024Z,7.90
2022-12-28T03:15:06.734Z,8.00
2022-12-28T03:17:54.765Z,7.90
2022-12-28T03:20:44.391Z,7.90
2022-12-28T03:23:33.830Z,7.90
2022-12-28T03:26:23.434Z,7.90
2022-12-28T03:29:09.663Z,8.00
2022-12-28T03:31:37.427Z,8.00
2022-12-28T03:34:07.201Z,8.00
2022-12-28T03:36:37.834Z,8.00
2022-12-28T03:39:13.075Z,8.10
2022-12-28T03:41:50.013Z,8.10
2022-12-28T03:44:24.452Z,8.00
2022-12-28T03:47:03.912Z,8.10
2022-12-28T03:49:31.413Z,8.10
2022-12-28T03:52:00.648Z,8.10
2022-12-28T03:54:27.419Z,8.10
2022-12-28T03:56:54.427Z,8.10
2022-12-28T03:59:21.267Z,8.10
2022-12-28T04:01:48.109Z,8.00
2022-12-28T04:04:15.007Z,8.10
2022-12-28T04:06:44.019Z,8.00
2022-12-28T04:09:10.786Z,8.00
2022-12-28T04:11:37.550Z,8.00
2022-12-28T04:14:10.358Z,8.00
2022-12-28T04:16:37.695Z,8.00
2022-12-28T04:19:04.512Z,8.00
2022-12-28T04:21:31.444Z,8.00
2022-12-28T04:23:58.181Z,8.00
2022-12-28T04:26:24.933Z,7.90
2022-12-28T04:28:51.680Z,8.00
2022-12-28T04:31:18.421Z,8.00
2022-12-28T04:33:45.233Z,8.00
2022-12-28T04:36:15.319Z,8.00
2022-12-28T04:38:42.829Z,7.90
2022-12-28T04:41:11.028Z,7.80
2022-12-28T04:43:38.980Z,7.90
2022-12-28T04:46:10.117Z,7.90
2022-12-28T04:48:37.140Z,7.90
2022-12-28T04:51:11.411Z,7.90
2022-12-28T04:53:39.717Z,7.80
2022-12-28T04:56:08.575Z,7.90
2022-12-28T04:58:36.394Z,7.90
2022-12-28T05:01:09.120Z,8.00
2022-12-28T05:03:37.623Z,8.00
2022-12-28T05:06:07.588Z,8.00
2022-12-28T05:08:36.661Z,8.00
2022-12-28T05:11:06.425Z,8.00
2022-12-28T05:13:34.062Z,8.10
2022-12-28T05:16:02.464Z,8.10
2022-12-28T05:18:29.763Z,8.10
2022-12-28T05:21:06.191Z,8.10
2022-12-28T05:23:34.934Z,8.10
2022-12-28T05:26:01.806Z,8.20
2022-12-28T05:28:28.617Z,8.20
2022-12-28T05:31:03.166Z,8.30
2022-12-28T05:33:31.470Z,8.20
2022-12-28T05:36:04.058Z,8.20
2022-12-28T05:38:30.969Z,8.20
2022-12-28T05:41:03.715Z,8.20
2022-12-28T05:43:30.637Z,8.20
2022-12-28T05:46:04.632Z,8.30
2022-12-28T05:48:33.643Z,8.30
2022-12-28T05:51:06.581Z,8.30
2022-12-28T05:53:33.802Z,8.30
2022-12-28T05:56:12.138Z,8.30
2022-12-28T05:58:41.063Z,8.40
2022-12-28T06:01:16.186Z,8.40
2022-12-28T06:03:43.954Z,8.50
2022-12-28T06:06:13.418Z,8.50
2022-12-28T06:08:41.271Z,8.60
2022-12-28T06:11:11.238Z,8.60
2022-12-28T06:13:38.526Z,8.70
2022-12-28T06:16:11.563Z,8.60
2022-12-28T06:18:38.569Z,8.60
2022-12-28T06:21:11.905Z,8.60
2022-12-28T06:23:38.785Z,8.60
2022-12-28T06:26:07.645Z,8.60
2022-12-28T06:28:37.099Z,8.70
2022-12-28T06:31:13.269Z,8.70
2022-12-28T06:33:40.438Z,8.70
2022-12-28T06:36:20.682Z,8.80
2022-12-28T06:38:48.948Z,8.80
2022-12-28T06:41:17.852Z,8.80
2022-12-28T06:43:46.004Z,8.90
2022-12-28T06:46:14.337Z,9.00
2022-12-28T06:48:41.723Z,8.90
2022-12-28T06:51:13.341Z,9.00
2022-12-28T06:53:40.178Z,9.00
2022-12-28T06:56:11.426Z,8.90
2022-12-28T06:58:38.865Z,9.00
2022-12-28T07:01:14.007Z,9.10
2022-12-28T07:03:41.371Z,9.10
2022-12-28T07:06:08.173Z,9.10
2022-12-28T07:08:35.472Z,9.20
2022-12-28T07:11:13.860Z,9.10
2022-12-28T07:13:41.451Z,9.20
2022-12-28T07:16:12.406Z,9.20
2022-12-28T07:18:39.786Z,9.20
2022-12-28T07:21:10.719Z,9.20
2022-12-28T07:23:37.844Z,9.20
2022-12-28T07:26:10.278Z,9.10
2022-12-28T07:28:41.935Z,9.10
2022-12-28T07:31:14.078Z,9.00
2022-12-28T07:33:41.840Z,8.90
2022-12-28T07:36:11.549Z,8.90
2022-12-28T07:38:38.525Z,8.80
2022-12-28T07:41:07.984Z,8.80
2022-12-28T07:43:35.448Z,8.70
2022-12-28T07:46:13.418Z,8.60
2022-12-28T07:48:41.843Z,8.60
2022-12-28T07:51:20.487Z,8.60
2022-12-28T07:53:49.241Z,8.50
2022-12-28T07:56:16.830Z,8.40
2022-12-28T08:01:17.275Z,8.40
2022-12-28T08:03:44.567Z,8.40
2022-12-28T08:06:20.851Z,8.30
2022-12-28T08:08:50.912Z,8.30
2022-12-28T08:11:21.954Z,8.30
2022-12-28T08:13:50.517Z,8.30
2022-12-28T08:16:19.058Z,8.40
2022-12-28T08:18:46.449Z,8.40
2022-12-28T08:21:16.871Z,8.40
2022-12-28T08:23:43.772Z,8.30
2022-12-28T08:26:13.206Z,8.40
2022-12-28T08:28:41.210Z,8.30
2022-12-28T08:31:15.840Z,8.30
2022-12-28T08:33:43.360Z,8.30
2022-12-28T08:36:10.589Z,8.30
2022-12-28T08:38:38.747Z,8.30
2022-12-28T08:41:07.875Z,8.30
2022-12-28T08:43:35.391Z,8.30
2022-12-28T08:46:05.867Z,8.20
2022-12-28T08:48:34.073Z,8.30
2022-12-28T08:51:07.117Z,8.30
2022-12-28T08:53:34.750Z,8.30
2022-12-28T08:56:06.825Z,8.30
2022-12-28T08:58:34.570Z,8.40
2022-12-28T09:01:07.496Z,8.30
2022-12-28T09:03:39.215Z,8.30
2022-12-28T09:06:08.826Z,8.40
2022-12-28T09:08:35.958Z,8.30
2022-12-28T09:11:05.394Z,8.40
2022-12-28T09:13:33.099Z,8.40
2022-12-28T09:16:12.471Z,8.40
2022-12-28T09:18:41.206Z,8.40
2022-12-28T09:21:09.061Z,8.50
2022-12-28T09:23:36.191Z,8.40
2022-12-28T09:26:31.171Z,8.40
2022-12-28T09:29:01.107Z,8.50
2022-12-28T09:31:30.009Z,8.50
2022-12-28T09:36:47.681Z,8.50
2022-12-28T09:39:17.878Z,8.50
2022-12-28T09:41:49.321Z,8.60
2022-12-28T09:44:19.611Z,8.60
2022-12-28T09:47:03.686Z,8.60
2022-12-28T09:49:44.820Z,8.60
2022-12-28T09:52:14.366Z,8.70
2022-12-28T09:54:41.889Z,8.60
2022-12-28T09:57:15.304Z,8.70
2022-12-28T09:59:42.551Z,8.60
2022-12-28T10:02:24.765Z,8.60
2022-12-28T10:04:51.939Z,8.70
2022-12-28T10:07:19.010Z,8.70
2022-12-28T10:09:47.042Z,8.70
2022-12-28T10:12:24.397Z,8.70
2022-12-28T10:14:53.151Z,8.70
2022-12-28T10:17:27.045Z,8.80
2022-12-28T10:19:57.403Z,8.80
2022-12-28T10:22:26.424Z,8.80
2022-12-28T10:24:54.131Z,8.80
2022-12-28T10:27:29.374Z,8.80
2022-12-28T10:29:59.191Z,8.90
2022-12-28T10:32:25.970Z,8.90
2022-12-28T10:34:59.761Z,8.80
2022-12-28T10:37:32.475Z,8.90
2022-12-28T10:40:09.297Z,8.90
2022-12-28T10:42:42.725Z,8.90
2022-12-28T10:45:21.780Z,8.90
2022-12-28T10:47:56.789Z,8.90
2022-12-28T10:50:45.393Z,8.90
2022-12-28T10:53:28.834Z,8.90
2022-12-28T10:56:06.833Z,8.90
2022-12-28T10:58:34.892Z,8.90
2022-12-28T11:01:01.681Z,9.00
2022-12-28T11:03:32.881Z,8.90
2022-12-28T11:06:21.280Z,9.00
2022-12-28T11:09:06.822Z,9.00
2022-12-28T11:11:33.998Z,9.00
2022-12-28T11:14:12.312Z,9.00
2022-12-28T11:16:41.217Z,9.00
2022-12-28T11:19:08.165Z,9.10
2022-12-28T11:21:36.125Z,9.10
2022-12-28T11:24:04.340Z,9.10
2022-12-28T11:26:32.785Z,9.10
2022-12-28T11:29:01.792Z,9.20
2022-12-28T11:31:34.286Z,9.20
2022-12-28T11:34:07.044Z,9.20
2022-12-28T11:36:39.657Z,9.20
2022-12-28T11:39:25.159Z,9.20
2022-12-28T11:42:19.432Z,9.20
2022-12-28T11:44:40.445Z,9.20
2022-12-28T11:47:16.032Z,9.20
2022-12-28T11:49:44.454Z,9.30
2022-12-28T11:52:17.852Z,9.30
2022-12-28T11:55:21.527Z,9.30
2022-12-28T11:57:48.857Z,9.40
2022-12-28T12:00:23.062Z,9.30
2022-12-28T12:02:50.257Z,9.40
2022-12-28T12:05:36.341Z,9.30
2022-12-28T12:08:12.129Z,9.40
2022-12-28T12:10:41.576Z,9.40
2022-12-28T12:13:26.728Z,9.30
2022-12-28T12:16:07.841Z,9.40
2022-12-28T12:18:46.256Z,9.40
2022-12-28T12:21:24.383Z,9.40
2022-12-28T12:23:56.832Z,9.40
2022-12-28T12:26:30.127Z,9.50
2022-12-28T12:29:04.600Z,9.40
2022-12-28T12:31:36.040Z,9.40
2022-12-28T12:34:19.589Z,9.50
2022-12-28T12:36:58.816Z,9.50
2022-12-28T12:39:52.266Z,9.50
2022-12-28T12:42:43.867Z,9.50
2022-12-28T12:45:23.394Z,9.50
2022-12-28T12:48:09.857Z,9.50
2022-12-28T12:51:05.231Z,9.50
2022-12-28T12:54:20.978Z,9.50
2022-12-28T12:56:59.633Z,9.50
2022-12-28T13:00:01.945Z,9.60
2022-12-28T13:03:06.241Z,9.60
2022-12-28T13:05:33.079Z,9.60
2022-12-28T13:08:01.431Z,9.60
2022-12-28T13:10:36.524Z,9.60
2022-12-28T13:13:05.559Z,9.60
2022-12-28T13:15:32.778Z,9.60
2022-12-28T13:18:45.532Z,9.70
2022-12-28T13:21:08.914Z,9.70
2022-12-28T13:23:44.836Z,9.70
2022-12-28T13:26:13.316Z,9.70
2022-12-28T13:29:11.842Z,9.70
2022-12-28T13:31:41.038Z,9.80
2022-12-28T13:34:13.764Z,9.90
2022-12-28T13:36:56.784Z,9.80
2022-12-28T13:39:28.459Z,9.90
2022-12-28T13:42:11.214Z,9.90
2022-12-28T13:44:46.617Z,9.90
2022-12-28T13:47:38.077Z,9.90
2022-12-28T13:50:14.465Z,9.90
2022-12-28T13:52:44.949Z,9.90
2022-12-28T13:55:41.642Z,10.00
2022-12-28T13:58:16.832Z,10.00
2022-12-28T14:00:47.027Z,10.00
2022-12-28T14:03:15.123Z,10.00
2022-12-28T14:05:47.694Z,10.00
2022-12-28T14:08:15.763Z,10.10
2022-12-28T14:10:42.860Z,10.10
2022-12-28T14:13:10.586Z,10.00
2022-12-28T14:15:41.441Z,10.00
2022-12-28T14:18:09.856Z,10.10
2022-12-28T14:20:54.858Z,10.00
2022-12-28T14:23:23.115Z,10.10
2022-12-28T14:25:51.460Z,10.00
2022-12-28T14:28:34.622Z,10.00
2022-12-28T14:31:03.358Z,10.00
2022-12-28T14:33:35.981Z,10.00
2022-12-28T14:36:05.973Z,10.00
2022-12-28T14:38:45.619Z,10.00
2022-12-28T14:41:20.456Z,10.00
2022-12-28T14:43:56.506Z,10.00
2022-12-28T14:46:34.803Z,9.90
2022-12-28T14:49:30.639Z,10.00
2022-12-28T14:52:18.313Z,9.90
2022-12-28T14:54:52.193Z,9.90
2022-12-28T14:57:34.640Z,9.80
2022-12-28T15:00:07.899Z,9.80
2022-12-28T15:02:34.954Z,9.80
2022-12-28T15:05:02.920Z,9.80
2022-12-28T15:07:31.877Z,9.80
2022-12-28T15:09:58.642Z,9.70
2022-12-28T15:12:25.462Z,9.70
2022-12-28T15:14:52.365Z,9.80
2022-12-28T15:17:19.219Z,9.80
2022-12-28T15:19:46.107Z,9.80
2022-12-28T15:22:13.725Z,9.70
2022-12-28T15:24:45.076Z,9.70
2022-12-28T15:27:12.064Z,9.70
2022-12-28T15:30:04.542Z,9.60
2022-12-28T15:32:25.613Z,9.60
2022-12-28T15:34:52.335Z,9.60
2022-12-28T15:37:19.315Z,9.50
2022-12-28T15:39:46.120Z,9.50
2022-12-28T15:42:12.905Z,9.50
2022-12-28T15:44:39.686Z,9.50
2022-12-28T15:47:06.920Z,9.40
2022-12-28T15:49:34.621Z,9.40
2022-12-28T15:52:01.845Z,9.30
2022-12-28T15:54:28.555Z,9.30
2022-12-28T15:56:56.227Z,9.40
2022-12-28T15:59:22.979Z,9.30
2022-12-28T16:01:50.063Z,9.30
2022-12-28T16:04:17.129Z,9.30
2022-12-28T16:06:45.237Z,9.40
2022-12-28T16:09:13.626Z,9.30
2022-12-28T16:11:41.489Z,9.30
2022-12-28T16:14:13.340Z,9.30
2022-12-28T16:16:41.292Z,9.30
2022-12-28T16:19:09.065Z,9.40
2022-12-28T16:21:36.277Z,9.30
2022-12-28T16:24:03.452Z,9.30
2022-12-28T16:26:30.278Z,9.30
2022-12-28T16:28:59.470Z,9.20
2022-12-28T16:31:32.525Z,9.20
2022-12-28T16:34:04.933Z,9.30
2022-12-28T16:36:32.487Z,9.20
2022-12-28T16:38:59.261Z,9.20
2022-12-28T16:41:29.943Z,9.20
2022-12-28T16:44:04.168Z,9.20
2022-12-28T16:46:30.951Z,9.10
2022-12-28T16:49:01.164Z,9.20
2022-12-28T16:51:29.084Z,9.10
2022-12-28T16:53:55.991Z,9.20
2022-12-28T16:56:23.440Z,9.10
2022-12-28T16:58:50.553Z,9.10
2022-12-28T17:01:17.622Z,9.10
2022-12-28T17:03:44.479Z,9.10
2022-12-28T17:06:11.316Z,9.10
2022-12-28T17:08:38.267Z,9.10
2022-12-28T17:11:09.983Z,9.00
2022-12-28T17:13:37.863Z,9.00
2022-12-28T17:16:06.064Z,9.10
2022-12-28T17:18:33.307Z,9.20
2022-12-28T17:21:04.855Z,9.10
2022-12-28T17:23:33.541Z,9.10
2022-12-28T17:26:00.356Z,9.10
2022-12-28T17:28:27.349Z,9.10
2022-12-28T17:31:05.311Z,9.10
2022-12-28T17:33:37.221Z,9.10
2022-12-28T17:36:06.851Z,9.10
2022-12-28T17:38:33.686Z,9.10
2022-12-28T17:41:00.452Z,9.10
2022-12-28T17:43:27.229Z,9.00
2022-12-28T17:45:54.065Z,9.10
2022-12-28T17:48:27.849Z,9.20
2022-12-28T17:50:54.597Z,9.20
2022-12-28T17:53:21.486Z,9.20
2022-12-28T17:55:48.293Z,9.20
2022-12-28T17:58:15.069Z,9.20
2022-12-28T18:00:42.771Z,9.20
2022-12-28T18:03:09.637Z,9.30
2022-12-28T18:05:36.429Z,9.30
2022-12-28T18:08:03.211Z,9.30
2022-12-28T18:10:29.970Z,9.30
2022-12-28T18:12:56.775Z,9.50
2022-12-28T18:15:26.332Z,9.50
2022-12-28T18:17:56.611Z,9.50
2022-12-28T18:20:23.504Z,9.50
2022-12-28T18:22:50.324Z,9.50
2022-12-28T18:25:17.836Z,9.50
2022-12-28T18:27:44.568Z,9.60
2022-12-28T18:30:11.866Z,9.60
2022-12-28T18:32:38.806Z,9.60
2022-12-28T18:35:06.240Z,9.70
2022-12-28T18:37:33.078Z,9.70
2022-12-28T18:39:59.989Z,9.60
2022-12-28T18:42:26.769Z,9.70
2022-12-28T18:44:53.734Z,9.70
2022-12-28T18:47:20.614Z,9.70
2022-12-28T18:49:48.838Z,9.70
2022-12-28T18:52:16.907Z,9.70
2022-12-28T18:54:43.824Z,9.70
2022-12-28T18:57:10.663Z,9.80
2022-12-28T18:59:37.833Z,9.80
2022-12-28T19:02:06.885Z,9.90
2022-12-28T19:04:34.696Z,9.90
2022-12-28T19:07:01.598Z,9.90
2022-12-28T19:09:28.351Z,10.00
2022-12-28T19:11:55.803Z,10.00
2022-12-28T19:14:22.650Z,10.00
2022-12-28T19:16:49.831Z,10.00
2022-12-28T19:19:17.863Z,10.00
2022-12-28T19:21:44.993Z,10.00
2022-12-28T19:24:19.385Z,10.00
2022-12-28T19:26:47.262Z,10.00
2022-12-28T19:29:15.616Z,10.00
2022-12-28T19:31:43.035Z,10.00
2022-12-28T19:34:09.960Z,10.00
2022-12-28T19:36:36.958Z,10.00
2022-12-28T19:39:03.829Z,10.10
2022-12-28T19:41:30.758Z,10.10
2022-12-28T19:43:57.631Z,10.10
2022-12-28T19:46:31.336Z,10.20
2022-12-28T19:49:00.949Z,10.20
2022-12-28T19:51:31.634Z,10.30
2022-12-28T19:53:59.465Z,10.30
2022-12-28T19:56:26.445Z,10.30
2022-12-28T19:58:57.856Z,10.40
2022-12-28T20:01:31.921Z,10.40
2022-12-28T20:03:59.901Z,10.40
2022-12-28T20:06:29.317Z,10.40
2022-12-28T20:09:02.008Z,10.40
2022-12-28T20:11:29.700Z,10.60
2022-12-28T20:13:58.722Z,10.60
2022-12-28T20:16:27.649Z,10.50
2022-12-28T20:18:55.277Z,10.60
2022-12-28T20:21:24.551Z,10.60
2022-12-28T20:23:52.552Z,10.60
2022-12-28T20:26:20.804Z,10.60
2022-12-28T20:28:49.863Z,10.60
2022-12-28T20:31:16.973Z,10.70
2022-12-28T20:33:44.359Z,10.70
2022-12-28T20:36:16.812Z,10.70
2022-12-28T20:38:44.150Z,10.70
2022-12-28T20:41:39.383Z,10.60
2022-12-28T20:44:09.083Z,10.70
2022-12-28T20:46:36.527Z,10.70
2022-12-28T20:49:04.046Z,10.70
2022-12-28T20:51:30.804Z,10.60
2022-12-28T20:53:57.588Z,10.70
2022-12-28T20:56:24.363Z,10.70
2022-12-28T20:58:51.115Z,10.70
2022-12-28T21:01:18.291Z,10.80
2022-12-28T21:03:45.853Z,10.80
2022-12-28T21:06:13.018Z,10.80
2022-12-28T21:08:40.047Z,10.80
2022-12-28T21:11:06.903Z,10.80
2022-12-28T21:13:34.667Z,10.80
2022-12-28T21:16:04.800Z,10.80
2022-12-28T21:18:32.157Z,10.80
2022-12-28T21:21:00.174Z,10.80
2022-12-28T21:23:30.532Z,10.80
2022-12-28T21:26:05.855Z,10.80
2022-12-28T21:28:34.095Z,10.80
2022-12-28T21:31:03.848Z,10.90
2022-12-28T21:33:31.488Z,10.90
2022-12-28T21:36:06.486Z,10.80
2022-12-28T21:38:37.153Z,10.90
2022-12-28T21:41:06.816Z,10.90
2022-12-28T21:43:33.853Z,10.90
2022-12-28T21:46:03.590Z,10.90
2022-12-28T21:48:32.297Z,10.90
2022-12-28T21:51:29.336Z,11.00
2022-12-28T21:54:00.180Z,11.00
2022-12-28T21:56:27.836Z,11.00
2022-12-28T21:58:55.096Z,11.00
2022-12-28T22:01:40.630Z,11.00
2022-12-28T22:04:28.207Z,11.00
2022-12-28T22:06:54.992Z,11.00
2022-12-28T22:09:40.905Z,11.00
2022-12-28T22:12:29.640Z,11.00
2022-12-28T22:15:16.631Z,11.00
2022-12-28T22:17:44.528Z,11.00
2022-12-28T22:20:13.319Z,11.10
2022-12-28T22:22:41.597Z,11.10
2022-12-28T22:25:09.947Z,11.10
2022-12-28T22:27:36.975Z,11.10
2022-12-28T22:30:04.523Z,11.00
2022-12-28T22:32:31.260Z,10.90
2022-12-28T22:34:58.057Z,10.80
2022-12-28T22:37:24.919Z,10.70
2022-12-28T22:39:51.741Z,10.60
2022-12-28T22:42:18.587Z,10.60
2022-12-28T22:44:45.335Z,10.50
2022-12-28T22:47:12.075Z,10.60
2022-12-28T22:49:38.777Z,10.60
2022-12-28T22:52:05.512Z,10.60
2022-12-28T22:54:32.219Z,10.60
2022-12-28T22:56:58.983Z,10.60
2022-12-28T22:59:25.787Z,10.60
2022-12-28T23:01:55.495Z,10.60
2022-12-28T23:04:22.329Z,10.70
2022-12-28T23:06:49.097Z,10.70
2022-12-28T23:09:15.884Z,10.70
2022-12-28T23:11:42.837Z,10.80
2022-12-28T23:14:37.302Z,10.80
2022-12-28T23:17:10.260Z,10.80
2022-12-28T23:19:55.404Z,10.80
2022-12-28T23:22:43.722Z,10.90
2022-12-28T23:25:31.320Z,10.90
2022-12-28T23:28:00.415Z,11.00
2022-12-28T23:30:28.362Z,11.00
2022-12-28T23:32:55.899Z,11.00
2022-12-28T23:35:24.901Z,11.10
2022-12-28T23:37:52.724Z,11.00
2022-12-28T23:40:21.108Z,11.00
2022-12-28T23:42:47.959Z,11.00
2022-12-28T23:45:17.739Z,11.00
2022-12-28T23:47:45.576Z,11.00
2022-12-28T23:50:13.908Z,11.00
2022-12-28T23:52:41.431Z,11.00
2022-12-28T23:55:09.985Z,11.10
2022-12-28T23:57:37.005Z,11.00
